createdAt,value
2023-03-23T16:05:07.057Z,83.95
2023-03-23T16:15:10.694Z,82.46
2023-03-23T16:25:16.045Z,82.98
2023-03-23T16:35:19.510Z,86.07
2023-03-23T16:45:25.026Z,88.98
2023-03-23T16:55:28.376Z,91.85
2023-03-23T17:05:32.753Z,91.80
2023-03-23T17:15:38.218Z,92.84
2023-03-23T17:25:43.280Z,92.99
2023-03-23T17:35:47.930Z,91.92
2023-03-23T17:45:52.587Z,91.43
2023-03-23T17:55:56.504Z,92.00
2023-03-23T18:06:03.313Z,90.22
2023-03-23T18:16:07.696Z,88.58
2023-03-23T18:26:14.301Z,86.54
2023-03-23T18:36:20.234Z,85.79
2023-03-23T18:46:24.908Z,85.11
2023-03-23T18:56:27.797Z,84.37
2023-03-23T19:06:33.250Z,84.68
2023-03-23T19:16:37.072Z,84.30
2023-03-23T19:26:44.179Z,84.22
2023-03-23T19:36:54.167Z,85.75
2023-03-23T19:47:00.880Z,88.00
2023-03-23T19:57:04.069Z,88.98
2023-03-23T20:07:08.715Z,91.17
2023-03-23T20:17:12.058Z,92.66
2023-03-23T20:27:17.535Z,94.29
2023-03-23T20:37:20.881Z,96.84
2023-03-23T20:47:25.339Z,98.12
2023-03-23T20:57:28.913Z,99.29
2023-03-23T21:07:33.377Z,98.77
2023-03-23T21:17:36.380Z,97.93
2023-03-23T21:27:41.477Z,98.03
2023-03-23T21:37:44.546Z,100.00
2023-03-23T21:47:49.222Z,100.00
2023-03-23T21:57:52.675Z,100.00
2023-03-23T22:07:57.170Z,100.00
2023-03-23T22:18:00.829Z,100.00
2023-03-23T22:28:06.266Z,100.00
2023-03-23T22:38:09.324Z,100.00
2023-03-23T22:48:13.837Z,100.00
2023-03-23T22:58:17.698Z,100.00
2023-03-23T23:08:22.598Z,100.00
2023-03-23T23:18:26.704Z,100.00
2023-03-23T23:28:31.203Z,100.00
2023-03-23T23:38:34.293Z,100.00
2023-03-23T23:48:39.020Z,100.00
2023-03-23T23:58:42.125Z,100.00
